Domov               UVHVVR             MKGP            O straneh              
ZDRAVSTVENO VARSTVO RASTLIN
  MREŽA AGROMET. POSTAJ
 ► PROGNOSTIČNA OBVESTILA
AGROMETEOROLOŠKI PODATKI -
ARSO
OBVLADOVANJE TVEGANJ ZARADI
NEUGODNIH VREMENSKIH RAZMER
  ► NARAVNE NESREČE
  ► SUŠA/MOČA
  ► NAMAKANJE
  ► ŽLED (gozdarstvo)
KARTOGRAFSKI PRIKAZI
SPLETNE POVEZAVE
PROJEKTI IN PUBLIKACIJE

AGROMETEOROLOŠKA MREŽA: VREMENSKE POSTAJE IN FENOLOŠKA OPAZOVANJA

Pregled podatkov za lokacijo Radlje ob Dravi, meteorološka postaja 857248

Pregled senzorjev na lokaciji

ID Ime Zadnja
vrednost
Datum
zadnje
spremembe
Tip
senzorja
3912 Temperatura 2 m ( °C) 16,23 °C 25.6.2017 03:30 50YA
3913 Relativna vlaga 2 m (% RH) 99,3 % RH 25.6.2017 03:30 50YA
3914 Omočenost lista (U) 10 U 25.6.2017 03:30 A730WET
3915 Hitrost vetra (km/h) 1,11 km/h 25.6.2017 03:30 566.2S-176 (200km/h)
3916 Padavine 0.2 mm (mm) 0 mm 25.6.2017 03:30 Rain-O-Matic
3917 Smer vetra (°) 44,44 ° 25.6.2017 03:30 566.2S-130

Pregled podatkov zadnjih 24 ur

Zap.
št.
Datum in čas Radlje ob Dravi
Hitrost
vetra
Omočenost
lista
Padavine
0.2
mm
Relativna
vlaga
2
m
Smer
vetra
Temperatura
2
m
0 25.6.2017 02:30 1,11 10 0 99,3 44,44 16,23
1 25.6.2017 02:00 2,98 10 0 98,76 35,49 16,89
2 25.6.2017 01:30 6,48 10 10,8 93,63 131,32 18,32
3 25.6.2017 01:00 0,57 0 0 90,08 214,58 21,06
4 25.6.2017 00:30 0,49 0 0 90,49 225,72 20,91
5 25.6.2017 00:00 0,48 0 0 89,58 225,75 21,09
6 24.6.2017 23:30 0,48 0 0 88,09 225,75 21,36
7 24.6.2017 23:00 0,53 0 0 86,29 225,77 21,72
8 24.6.2017 22:30 0,48 0 0 84,58 225,76 22,14
9 24.6.2017 22:00 0,55 0 0 82,8 225,78 22,4
10 24.6.2017 21:30 0,48 0 0 81,36 225,77 22,91
11 24.6.2017 21:00 0,63 0 0 77,73 226,04 23,71
12 24.6.2017 20:30 0,52 0 0 74,6 356,22 24,3
13 24.6.2017 20:00 1,29 0 0 71,62 41,5 25,02
14 24.6.2017 19:30 0,73 0 0 65,87 286,05 26,52
15 24.6.2017 19:00 1,29 0 0 55,92 269,88 28,68
16 24.6.2017 18:30 3,28 0 0 51,52 309,31 30,05
17 24.6.2017 18:00 2,08 0 0 50,43 338,59 30,87
18 24.6.2017 17:30 1,77 0 0 52,1 309,92 30,74
19 24.6.2017 17:00 0,65 0 0 56,16 56,73 30,11
20 24.6.2017 16:30 1,42 0 0 60,68 18,73 28,29
21 24.6.2017 16:00 1,46 0 0 57,16 35,21 28,57
22 24.6.2017 15:30 0,84 0 0 46,74 324,38 30,27
23 24.6.2017 15:00 2,55 0 0 39,82 297,98 31,65
24 24.6.2017 14:30 3,28 0 0 36,79 230,22 33,02
25 24.6.2017 14:00 3,11 0 0 36,73 265,93 33,02
26 24.6.2017 13:30 3,01 0 0 39,31 84,31 32,38
27 24.6.2017 13:00 2,52 0 0 39,42 246,17 32,34
28 24.6.2017 12:30 2,56 0 0 44,86 107,65 31,32
29 24.6.2017 12:00 1,53 0 0 49,55 242,24 30,4
30 24.6.2017 11:30 2,38 0 0 51,28 135,89 29,51
31 24.6.2017 11:00 2,08 0 0 49,56 202,34 28,89
32 24.6.2017 10:30 1,25 0 0 48,85 215,58 28,17
33 24.6.2017 10:00 1,17 0 0 50,78 170,43 27,06
34 24.6.2017 09:30 0,64 0 0 59,26 174,31 25,5
35 24.6.2017 09:00 1,08 0 0 68,87 174,93 23,67
36 24.6.2017 08:30 1,17 1 0 76,74 236,9 21,48
37 24.6.2017 08:00 1,92 10 0 85,41 228,56 19,42
38 24.6.2017 07:30 1,07 10 0 92,16 243,41 18,11
39 24.6.2017 07:00 0,73 10 0 94,25 202,17 17,47
40 24.6.2017 06:30 0,68 10 0 96,29 258,09 16,73
41 24.6.2017 06:00 0,59 10 0 97,16 71,93 16,63
42 24.6.2017 05:30 0,6 10 0 97,82 21,03 16,46
43 24.6.2017 05:00 0,77 10 0 98,4 14,41 16,5
44 24.6.2017 04:30 0,61 10 0 96,49 26,33 16,68
© 2011 Ministrstvo za kmetijstvo, gozdarstvo in prehrano. Vse pravice pridržane.